Time;durP1;ratioP1;P1;durP2;ratioP2;P2;SDS_P1;SDS_P2;PMS_P1;PMS_P2;Temp;Humidity;BMP_temperature;BMP_pressure;BME280_temperature;BME280_humidity;BME280_pressure;Samples;Min_cycle;Max_cycle;Signal;HPM_P1;HPM_P2
2023/02/09 00:00:47;;;;;;;66.90;25.73;;;;;;;;;;6349656;22;20019;-94
2023/02/09 00:03:13;;;;;;;70.13;28.23;;;;;;;;;;6322048;22;20032;-96
2023/02/09 00:05:39;;;;;;;67.15;29.15;;;;;;;;;;6326910;22;20081;-94
2023/02/09 00:08:05;;;;;;;73.90;30.67;;;;;;;;;;6301054;22;20003;-94
2023/02/09 00:10:34;;;;;;;68.95;29.95;;;;;;;;;;6324533;22;20003;-94
2023/02/09 00:13:21;;;;;;;71.53;28.90;;;;;;;;;;6324180;22;20090;-96
2023/02/09 00:15:50;;;;;;;67.13;27.58;;;;;;;;;;6321208;22;19999;-96
2023/02/09 00:18:27;;;;;;;66.70;29.83;;;;;;;;;;6324279;22;20416;-95
2023/02/09 00:21:19;;;;;;;68.53;29.23;;;;;;;;;;6321974;22;20089;-92
2023/02/09 00:23:55;;;;;;;74.78;28.60;;;;;;;;;;6319878;22;19995;-96
2023/02/09 00:26:22;;;;;;;64.88;27.40;;;;;;;;;;6320560;22;20048;-95
2023/02/09 00:28:54;;;;;;;60.00;26.38;;;;;;;;;;6322682;22;20074;-94
2023/02/09 00:31:39;;;;;;;75.50;29.10;;;;;;;;;;6353330;22;20006;-95
2023/02/09 00:34:09;;;;;;;65.30;28.38;;;;;;;;;;6351761;22;20006;-95
2023/02/09 00:36:38;;;;;;;67.28;27.80;;;;;;;;;;6352400;22;20065;-92
2023/02/09 00:39:05;;;;;;;71.18;30.48;;;;;;;;;;6321073;22;20006;-94
2023/02/09 00:42:09;;;;;;;76.10;31.40;;;;;;;;;;6324191;22;20044;-95
2023/02/09 00:44:37;;;;;;;68.50;29.08;;;;;;;;;;6323257;22;20002;-92
2023/02/09 00:47:20;;;;;;;69.55;29.90;;;;;;;;;;6322324;22;20006;-95
2023/02/09 00:49:52;;;;;;;66.43;28.08;;;;;;;;;;6346904;22;20060;-93
2023/02/09 00:52:19;;;;;;;79.38;32.58;;;;;;;;;;6352294;22;20313;-94
2023/02/09 00:55:06;;;;;;;91.55;36.47;;;;;;;;;;6323742;22;20124;-94
2023/02/09 00:57:35;;;;;;;73.38;31.08;;;;;;;;;;6317905;22;20034;-95
2023/02/09 01:00:22;;;;;;;81.10;33.55;;;;;;;;;;6341779;22;20003;-95
2023/02/09 01:02:48;;;;;;;138.85;52.30;;;;;;;;;;6322599;22;20017;-92
2023/02/09 01:05:17;;;;;;;129.50;49.17;;;;;;;;;;6323224;22;20003;-96
2023/02/09 01:07:44;;;;;;;137.27;46.40;;;;;;;;;;6323454;22;20037;-93
2023/02/09 01:10:29;;;;;;;113.47;45.00;;;;;;;;;;6324459;22;20007;-95
2023/02/09 01:12:59;;;;;;;129.70;48.50;;;;;;;;;;6332660;22;20010;-94
2023/02/09 01:15:26;;;;;;;132.40;51.08;;;;;;;;;;6354372;22;20419;-94
2023/02/09 01:17:53;;;;;;;122.75;45.17;;;;;;;;;;6319540;22;20346;-94
2023/02/09 01:23:08;;;;;;;120.72;48.05;;;;;;;;;;6374685;22;20064;-92
2023/02/09 01:25:45;;;;;;;132.20;50.20;;;;;;;;;;6362675;22;19998;-93
2023/02/09 01:28:34;;;;;;;107.17;44.93;;;;;;;;;;6324400;22;20027;-96
2023/02/09 01:31:04;;;;;;;121.20;47.17;;;;;;;;;;6321085;22;20078;-95
2023/02/09 01:33:42;;;;;;;121.40;45.28;;;;;;;;;;6351994;22;20007;-95
2023/02/09 01:36:17;;;;;;;133.50;50.58;;;;;;;;;;6349379;22;20003;-94
2023/02/09 01:38:47;;;;;;;118.35;49.67;;;;;;;;;;6349542;22;20007;-94
2023/02/09 01:41:16;;;;;;;129.25;51.55;;;;;;;;;;6347796;22;20014;-93
2023/02/09 01:43:48;;;;;;;122.43;47.67;;;;;;;;;;6323006;22;20010;-93
2023/02/09 01:46:14;;;;;;;94.50;39.88;;;;;;;;;;6321737;22;20036;-94
2023/02/09 01:48:40;;;;;;;95.60;38.63;;;;;;;;;;6322968;22;20320;-95
2023/02/09 01:51:16;;;;;;;81.72;32.65;;;;;;;;;;6351448;22;20424;-95
2023/02/09 01:53:47;;;;;;;70.97;27.73;;;;;;;;;;6301183;22;20007;-95
2023/02/09 01:56:21;;;;;;;89.97;33.42;;;;;;;;;;6325141;22;20011;-96
2023/02/09 01:58:49;;;;;;;68.00;28.52;;;;;;;;;;6325444;22;20008;-95
2023/02/09 02:01:22;;;;;;;67.00;27.90;;;;;;;;;;6348836;22;20489;-96
2023/02/09 02:04:01;;;;;;;63.00;27.25;;;;;;;;;;6349700;22;20052;-95
2023/02/09 02:06:31;;;;;;;62.85;27.50;;;;;;;;;;6352716;22;20009;-95
2023/02/09 02:09:15;;;;;;;75.82;27.42;;;;;;;;;;6351337;22;20021;-96
2023/02/09 02:11:48;;;;;;;66.82;27.50;;;;;;;;;;6325753;22;20006;-96
2023/02/09 02:14:31;;;;;;;71.50;28.40;;;;;;;;;;6296263;22;20026;-93
2023/02/09 02:17:05;;;;;;;64.63;27.25;;;;;;;;;;6321652;22;20011;-95
2023/02/09 02:19:54;;;;;;;72.80;29.15;;;;;;;;;;6350174;22;20002;-95
2023/02/09 02:22:45;;;;;;;73.43;30.33;;;;;;;;;;6351084;22;20011;-95
2023/02/09 02:25:56;;;;;;;71.47;28.63;;;;;;;;;;6352702;22;20045;-93
2023/02/09 02:28:37;;;;;;;76.53;30.08;;;;;;;;;;6349616;22;20052;-92
2023/02/09 02:31:06;;;;;;;80.50;32.20;;;;;;;;;;6324749;22;20026;-93
2023/02/09 02:33:55;;;;;;;77.13;31.27;;;;;;;;;;6325991;22;19998;-94
2023/02/09 02:36:21;;;;;;;77.22;31.15;;;;;;;;;;6319125;22;20003;-96
2023/02/09 02:39:00;;;;;;;76.30;31.10;;;;;;;;;;6349238;22;20003;-96
2023/02/09 02:44:41;;;;;;;84.70;32.00;;;;;;;;;;6350727;22;20014;-95
2023/02/09 02:47:12;;;;;;;71.72;29.05;;;;;;;;;;6322701;22;20412;-93
2023/02/09 02:49:48;;;;;;;69.35;29.13;;;;;;;;;;6323920;22;20006;-95
2023/02/09 02:52:16;;;;;;;64.47;27.45;;;;;;;;;;6332949;22;20051;-92
2023/02/09 02:55:05;;;;;;;58.58;25.80;;;;;;;;;;6306635;22;20056;-95
2023/02/09 02:57:36;;;;;;;62.08;27.63;;;;;;;;;;6343121;22;20003;-94
2023/02/09 03:00:14;;;;;;;59.65;24.92;;;;;;;;;;6297175;22;20027;-95
2023/02/09 03:02:52;;;;;;;57.85;23.75;;;;;;;;;;6350194;22;20037;-95
2023/02/09 03:05:22;;;;;;;58.35;26.40;;;;;;;;;;6298595;22;20003;-93
2023/02/09 03:07:59;;;;;;;54.53;23.20;;;;;;;;;;6350059;22;19998;-94
2023/02/09 03:10:33;;;;;;;59.05;23.85;;;;;;;;;;6322096;22;20010;-96
2023/02/09 03:13:09;;;;;;;60.13;23.88;;;;;;;;;;6330177;22;20036;-93
2023/02/09 03:15:41;;;;;;;56.17;22.55;;;;;;;;;;6322793;22;19999;-95
2023/02/09 03:18:29;;;;;;;47.63;21.60;;;;;;;;;;6321065;22;20030;-93
2023/02/09 03:21:17;;;;;;;56.50;22.92;;;;;;;;;;6345388;22;20014;-94
2023/02/09 03:23:52;;;;;;;49.42;22.75;;;;;;;;;;6350005;22;20011;-93
2023/02/09 03:26:27;;;;;;;57.70;24.02;;;;;;;;;;6321839;22;20006;-94
2023/02/09 03:28:57;;;;;;;56.67;24.17;;;;;;;;;;6349042;22;20037;-95
2023/02/09 03:31:27;;;;;;;57.22;24.58;;;;;;;;;;6350114;22;20017;-92
2023/02/09 03:33:55;;;;;;;57.63;24.17;;;;;;;;;;6320253;22;20006;-92
2023/02/09 03:36:22;;;;;;;58.20;25.58;;;;;;;;;;6351237;22;19999;-96
2023/02/09 03:38:54;;;;;;;51.78;22.85;;;;;;;;;;6350600;22;20013;-95
2023/02/09 03:41:22;;;;;;;47.95;21.85;;;;;;;;;;6348191;22;20185;-95
2023/02/09 03:46:35;;;;;;;51.40;22.77;;;;;;;;;;6346652;22;20018;-95
2023/02/09 03:49:05;;;;;;;54.53;22.90;;;;;;;;;;6321453;22;20002;-95
2023/02/09 03:51:32;;;;;;;57.78;22.88;;;;;;;;;;6297035;22;20120;-91
2023/02/09 03:53:59;;;;;;;47.28;21.67;;;;;;;;;;6321193;22;20010;-95
2023/02/09 03:56:26;;;;;;;48.60;21.55;;;;;;;;;;6355480;22;19991;-93
2023/02/09 03:58:52;;;;;;;54.63;22.25;;;;;;;;;;6337113;22;20014;-92
2023/02/09 04:01:21;;;;;;;46.30;20.17;;;;;;;;;;6335456;22;20052;-93
2023/02/09 04:03:48;;;;;;;53.30;21.70;;;;;;;;;;6352457;22;19999;-93
2023/02/09 04:06:15;;;;;;;53.58;20.58;;;;;;;;;;6350727;22;20013;-92
2023/02/09 04:08:49;;;;;;;56.50;22.65;;;;;;;;;;6321740;22;19998;-93
2023/02/09 04:11:16;;;;;;;52.45;22.05;;;;;;;;;;6348695;22;20003;-95
2023/02/09 04:13:50;;;;;;;55.33;22.38;;;;;;;;;;6343113;22;20003;-95
2023/02/09 04:16:20;;;;;;;49.78;21.67;;;;;;;;;;6324329;22;20006;-96
2023/02/09 04:18:47;;;;;;;51.45;21.98;;;;;;;;;;6348200;22;20105;-92
2023/02/09 04:21:17;;;;;;;51.20;22.70;;;;;;;;;;6347377;22;20010;-95
2023/02/09 04:23:49;;;;;;;53.55;21.55;;;;;;;;;;6320695;22;20010;-96
2023/02/09 04:26:17;;;;;;;52.63;19.95;;;;;;;;;;6321360;22;20011;-95
2023/02/09 04:28:45;;;;;;;44.90;20.77;;;;;;;;;;6321903;22;20007;-95
2023/02/09 04:31:18;;;;;;;46.97;20.20;;;;;;;;;;6334341;22;19994;-93
2023/02/09 04:33:45;;;;;;;51.38;20.42;;;;;;;;;;6311399;22;20014;-94
2023/02/09 04:36:14;;;;;;;50.03;21.58;;;;;;;;;;6320240;22;20010;-95
2023/02/09 04:38:43;;;;;;;51.58;20.63;;;;;;;;;;6319092;22;20003;-96
2023/02/09 04:41:10;;;;;;;52.53;20.98;;;;;;;;;;6293889;22;20014;-94
2023/02/09 04:43:37;;;;;;;51.20;21.08;;;;;;;;;;6347305;22;20006;-93
2023/02/09 04:46:03;;;;;;;47.55;20.00;;;;;;;;;;6293345;22;20006;-95
2023/02/09 04:48:33;;;;;;;54.13;20.90;;;;;;;;;;6346870;22;20063;-95
2023/02/09 04:51:01;;;;;;;51.58;20.83;;;;;;;;;;6294109;22;20011;-96
2023/02/09 04:53:28;;;;;;;52.00;20.63;;;;;;;;;;6295005;22;20033;-95
2023/02/09 04:55:58;;;;;;;51.75;20.58;;;;;;;;;;6320365;22;20436;-95
2023/02/09 05:01:11;;;;;;;44.38;19.88;;;;;;;;;;6348940;22;20034;-96
2023/02/09 05:03:37;;;;;;;46.85;19.98;;;;;;;;;;6320162;22;20002;-93
2023/02/09 05:06:04;;;;;;;45.95;20.00;;;;;;;;;;6328943;22;20006;-95
2023/02/09 05:08:31;;;;;;;55.88;20.55;;;;;;;;;;6348347;22;20007;-94
2023/02/09 05:10:59;;;;;;;46.90;19.77;;;;;;;;;;6346476;22;20007;-92
2023/02/09 05:13:27;;;;;;;44.28;19.10;;;;;;;;;;6319330;22;20122;-95
2023/02/09 05:15:53;;;;;;;49.65;21.90;;;;;;;;;;6346562;22;20017;-92
2023/02/09 05:18:24;;;;;;;55.25;22.70;;;;;;;;;;6346258;22;20086;-91
2023/02/09 05:20:51;;;;;;;53.70;23.08;;;;;;;;;;6294789;22;20011;-96
2023/02/09 05:23:18;;;;;;;62.67;23.15;;;;;;;;;;6320710;22;20007;-94
2023/02/09 05:25:46;;;;;;;60.15;22.00;;;;;;;;;;6317856;22;20061;-95
2023/02/09 05:28:12;;;;;;;55.33;22.10;;;;;;;;;;6317491;22;20018;-92
2023/02/09 05:30:39;;;;;;;54.38;21.25;;;;;;;;;;6317991;22;20054;-96
2023/02/09 05:33:07;;;;;;;51.90;22.50;;;;;;;;;;6345436;22;20007;-94
2023/02/09 05:35:36;;;;;;;51.85;20.92;;;;;;;;;;6324144;22;20006;-93
2023/02/09 05:38:03;;;;;;;54.50;23.08;;;;;;;;;;6345375;22;20002;-94
2023/02/09 05:40:30;;;;;;;58.45;23.13;;;;;;;;;;6314828;22;20006;-95
2023/02/09 05:42:58;;;;;;;53.55;23.00;;;;;;;;;;6312507;22;20007;-93
2023/02/09 05:45:25;;;;;;;50.20;21.63;;;;;;;;;;6316813;22;20074;-95
2023/02/09 05:47:53;;;;;;;47.40;19.95;;;;;;;;;;6317355;22;20133;-96
2023/02/09 05:50:19;;;;;;;55.28;22.15;;;;;;;;;;6291957;22;20031;-94
2023/02/09 05:52:46;;;;;;;53.63;21.40;;;;;;;;;;6318556;22;20078;-96
2023/02/09 05:55:12;;;;;;;44.58;20.23;;;;;;;;;;6344883;22;20048;-95
2023/02/09 05:57:39;;;;;;;50.97;21.05;;;;;;;;;;6345716;22;20050;-96
2023/02/09 06:00:07;;;;;;;47.13;19.40;;;;;;;;;;6320049;22;20027;-95
2023/02/09 06:02:34;;;;;;;51.40;22.10;;;;;;;;;;6313695;22;20014;-95
2023/02/09 06:05:04;;;;;;;49.55;20.75;;;;;;;;;;6318652;22;20003;-96
2023/02/09 06:07:31;;;;;;;49.03;21.58;;;;;;;;;;6292593;22;20014;-95
2023/02/09 06:10:00;;;;;;;58.42;21.60;;;;;;;;;;6326629;22;20006;-92
2023/02/09 06:12:29;;;;;;;47.78;20.83;;;;;;;;;;6364086;22;20006;-91
2023/02/09 06:15:00;;;;;;;50.08;21.10;;;;;;;;;;6324814;22;20007;-95
2023/02/09 06:17:26;;;;;;;56.17;21.67;;;;;;;;;;6317150;22;19998;-95
2023/02/09 06:19:52;;;;;;;48.88;20.58;;;;;;;;;;6316676;22;20003;-95
2023/02/09 06:22:18;;;;;;;61.38;23.70;;;;;;;;;;6314940;22;20049;-93
2023/02/09 06:24:44;;;;;;;52.28;22.02;;;;;;;;;;6314515;22;20003;-94
2023/02/09 06:27:13;;;;;;;53.35;23.50;;;;;;;;;;6316456;22;20022;-92
2023/02/09 06:29:40;;;;;;;62.75;23.60;;;;;;;;;;6315809;22;20426;-96
2023/02/09 06:32:10;;;;;;;67.32;25.48;;;;;;;;;;6320287;22;20035;-92
2023/02/09 06:34:37;;;;;;;62.10;25.00;;;;;;;;;;6338527;22;20010;-92
2023/02/09 06:37:13;;;;;;;57.00;23.60;;;;;;;;;;6337195;22;20086;-92
2023/02/09 06:39:48;;;;;;;55.05;22.75;;;;;;;;;;6355680;22;20011;-96
2023/02/09 06:42:20;;;;;;;48.05;22.05;;;;;;;;;;6351314;22;20027;-95
2023/02/09 06:45:10;;;;;;;51.95;22.65;;;;;;;;;;6328129;22;20056;-95
2023/02/09 06:48:04;;;;;;;46.25;21.88;;;;;;;;;;6321951;22;20009;-94
2023/02/09 06:50:33;;;;;;;47.80;23.98;;;;;;;;;;6358569;22;20015;-95
2023/02/09 06:53:25;;;;;;;49.75;23.67;;;;;;;;;;6333090;22;20022;-96
2023/02/09 06:56:37;;;;;;;42.05;21.73;;;;;;;;;;6328666;22;20061;-96
2023/02/09 06:59:23;;;;;;;46.05;23.02;;;;;;;;;;6354145;22;20037;-94
2023/02/09 07:02:09;;;;;;;49.40;23.55;;;;;;;;;;6354111;22;20042;-95
2023/02/09 07:04:37;;;;;;;39.53;21.92;;;;;;;;;;6349581;22;20003;-94
2023/02/09 07:07:03;;;;;;;45.00;23.05;;;;;;;;;;6327677;22;20111;-92
2023/02/09 07:09:52;;;;;;;37.85;21.10;;;;;;;;;;6326118;22;20384;-95
2023/02/09 07:12:51;;;;;;;41.17;22.63;;;;;;;;;;6352354;22;20321;-94
2023/02/09 07:15:39;;;;;;;40.42;22.70;;;;;;;;;;6347474;22;20007;-95
2023/02/09 07:53:01;;;;;;;44.67;32.17;;;;;;;;;;6314519;22;20033;-91
2023/02/09 07:55:46;;;;;;;43.78;28.95;;;;;;;;;;6296310;22;20073;-96
2023/02/09 07:58:31;;;;;;;50.25;30.52;;;;;;;;;;6322208;22;20052;-96
2023/02/09 08:01:24;;;;;;;44.40;27.08;;;;;;;;;;6302079;22;20011;-95
2023/02/09 08:04:19;;;;;;;31.97;23.53;;;;;;;;;;6300168;22;19988;-96
2023/02/09 08:07:21;;;;;;;26.10;19.15;;;;;;;;;;6322608;22;20297;-96
2023/02/09 08:09:51;;;;;;;24.25;17.45;;;;;;;;;;6294847;22;20017;-95
2023/02/09 08:15:45;;;;;;;22.67;17.42;;;;;;;;;;6322307;22;20034;-96
2023/02/09 08:18:36;;;;;;;22.92;18.35;;;;;;;;;;6275604;22;20003;-95
2023/02/09 08:21:25;;;;;;;20.30;15.55;;;;;;;;;;6322405;22;20017;-93
2023/02/09 08:24:34;;;;;;;21.00;15.75;;;;;;;;;;6246025;22;20009;-95
2023/02/09 08:27:20;;;;;;;87.80;42.85;;;;;;;;;;6325183;22;20026;-95
2023/02/09 08:29:56;;;;;;;94.72;48.03;;;;;;;;;;6297071;22;20010;-93
2023/02/09 08:32:58;;;;;;;26.65;20.42;;;;;;;;;;6323367;22;20014;-94
2023/02/09 08:35:51;;;;;;;22.60;18.35;;;;;;;;;;6322968;22;19991;-96
2023/02/09 08:38:51;;;;;;;20.85;16.95;;;;;;;;;;6300516;22;20003;-96
2023/02/09 08:41:50;;;;;;;22.77;18.15;;;;;;;;;;6265440;22;20016;-95
2023/02/09 08:44:27;;;;;;;22.60;18.30;;;;;;;;;;6203663;22;20009;-94
2023/02/09 08:47:36;;;;;;;24.00;19.25;;;;;;;;;;6329644;22;19995;-95
2023/02/09 09:05:48;;;;;;;24.30;18.95;;;;;;;;;;6303118;22;20018;-92
2023/02/09 09:08:18;;;;;;;21.38;16.90;;;;;;;;;;6299548;22;20018;-91
2023/02/09 09:13:48;;;;;;;22.52;18.35;;;;;;;;;;6349240;22;20006;-94
2023/02/09 09:16:47;;;;;;;21.65;16.90;;;;;;;;;;6326829;22;20030;-93
2023/02/09 09:19:35;;;;;;;21.73;16.85;;;;;;;;;;6244944;22;20003;-92
2023/02/09 09:37:19;;;;;;;24.23;18.52;;;;;;;;;;6344164;22;20018;-93
2023/02/09 09:39:46;;;;;;;23.83;18.23;;;;;;;;;;6329109;22;20123;-93
2023/02/09 09:42:34;;;;;;;24.25;19.27;;;;;;;;;;6331411;22;20018;-93
2023/02/09 09:45:12;;;;;;;24.55;17.95;;;;;;;;;;6329805;22;20014;-95
2023/02/09 09:47:43;;;;;;;23.60;19.48;;;;;;;;;;6327096;22;19998;-94
2023/02/09 09:50:34;;;;;;;23.23;17.67;;;;;;;;;;6330450;22;20003;-93
2023/02/09 09:53:31;;;;;;;22.85;18.55;;;;;;;;;;6326364;22;19995;-93
2023/02/09 09:56:07;;;;;;;21.92;17.70;;;;;;;;;;6278527;22;20023;-96
2023/02/09 09:58:46;;;;;;;25.77;20.75;;;;;;;;;;6297602;22;20011;-93
2023/02/09 10:01:22;;;;;;;22.30;18.17;;;;;;;;;;6302086;22;20009;-94
2023/02/09 10:10:18;;;;;;;23.45;19.13;;;;;;;;;;6197213;23;20053;-95
2023/02/09 10:16:01;;;;;;;25.58;19.45;;;;;;;;;;6115299;23;20089;-91
2023/02/09 10:43:47;;;;;;;26.88;19.42;;;;;;;;;;6326602;22;20093;-95
2023/02/09 10:49:35;;;;;;;27.60;22.05;;;;;;;;;;6306077;22;20030;-96
2023/02/09 10:55:23;;;;;;;27.80;18.88;;;;;;;;;;6362712;22;20033;-94
2023/02/09 10:58:50;;;;;;;29.63;21.38;;;;;;;;;;6335016;22;20022;-91
2023/02/09 11:15:44;;;;;;;28.63;18.63;;;;;;;;;;6284843;22;20159;-93
2023/02/09 11:24:07;;;;;;;25.70;18.90;;;;;;;;;;6339109;22;20056;-92
2023/02/09 11:27:01;;;;;;;;;;;;;;;;;;;;;
2023/02/09 11:37:46;;;;;;;26.52;17.63;;;;;;;;;;6288466;22;20007;-93
2023/02/09 11:47:38;;;;;;;;;;;;;;;;;;;;;
2023/02/09 11:52:49;;;;;;;27.05;17.15;;;;;;;;;;6271373;22;20027;-91
2023/02/09 11:57:55;;;;;;;27.88;17.35;;;;;;;;;;6319096;22;20019;-92
2023/02/09 12:00:55;;;;;;;24.33;15.82;;;;;;;;;;6326804;22;19987;-93
2023/02/09 12:08:36;;;;;;;24.20;16.20;;;;;;;;;;6318553;22;20038;-93
2023/02/09 12:14:58;;;;;;;26.73;16.42;;;;;;;;;;6267049;22;20068;-93
2023/02/09 12:17:24;;;;;;;25.73;15.43;;;;;;;;;;6274401;22;20027;-94
2023/02/09 12:19:55;;;;;;;24.95;15.35;;;;;;;;;;6287510;22;20007;-93
2023/02/09 12:22:33;;;;;;;24.75;15.00;;;;;;;;;;6290713;22;20019;-92
2023/02/09 12:25:12;;;;;;;21.13;13.75;;;;;;;;;;6290987;22;20003;-93
2023/02/09 12:27:42;;;;;;;26.17;14.98;;;;;;;;;;6290997;22;20003;-93
2023/02/09 12:30:28;;;;;;;26.02;15.60;;;;;;;;;;6292593;22;20027;-93
2023/02/09 12:33:14;;;;;;;25.73;15.25;;;;;;;;;;6168202;23;20001;-94
2023/02/09 12:35:40;;;;;;;28.58;15.73;;;;;;;;;;6169763;23;19996;-92
2023/02/09 12:38:38;;;;;;;26.23;15.80;;;;;;;;;;6253346;22;20003;-94
2023/02/09 12:41:09;;;;;;;25.20;15.88;;;;;;;;;;6311307;22;20007;-93
2023/02/09 12:43:46;;;;;;;24.08;14.93;;;;;;;;;;6321800;22;20015;-93
2023/02/09 12:46:56;;;;;;;30.00;16.70;;;;;;;;;;6290163;22;20090;-94
2023/02/09 12:49:28;;;;;;;24.75;14.10;;;;;;;;;;6292882;22;20003;-93
2023/02/09 12:52:21;;;;;;;22.60;14.18;;;;;;;;;;6290642;22;20064;-90
2023/02/09 12:57:53;;;;;;;33.25;19.27;;;;;;;;;;6354045;22;20023;-94
2023/02/09 13:00:51;;;;;;;24.08;14.80;;;;;;;;;;6322567;22;20002;-94
2023/02/09 13:03:18;;;;;;;26.75;16.67;;;;;;;;;;6258427;22;20018;-93
2023/02/09 13:05:54;;;;;;;31.27;18.25;;;;;;;;;;6323868;22;20007;-95
2023/02/09 13:22:44;;;;;;;29.10;15.70;;;;;;;;;;6362077;22;20014;-95
2023/02/09 13:25:13;;;;;;;23.30;13.63;;;;;;;;;;6333833;22;20097;-95
2023/02/09 13:30:42;;;;;;;21.63;12.48;;;;;;;;;;6343332;22;20027;-96
2023/02/09 13:36:35;;;;;;;28.77;15.02;;;;;;;;;;6317379;22;20010;-94
2023/02/09 13:39:36;;;;;;;25.58;14.02;;;;;;;;;;6330030;22;20002;-95
2023/02/09 13:42:15;;;;;;;24.65;13.60;;;;;;;;;;6314194;22;20011;-92
2023/02/09 13:44:59;;;;;;;25.88;14.13;;;;;;;;;;6345450;22;20036;-94
2023/02/09 13:47:26;;;;;;;26.92;15.02;;;;;;;;;;6323123;22;19998;-92
2023/02/09 13:49:58;;;;;;;23.00;13.30;;;;;;;;;;6321980;22;20022;-93
2023/02/09 13:52:25;;;;;;;24.02;13.88;;;;;;;;;;6324222;22;20020;-93
2023/02/09 13:54:52;;;;;;;27.17;15.65;;;;;;;;;;6322782;22;20011;-92
2023/02/09 13:57:29;;;;;;;24.00;13.43;;;;;;;;;;6293340;22;20102;-93
2023/02/09 14:00:07;;;;;;;29.80;13.55;;;;;;;;;;6293219;22;20010;-93
2023/02/09 14:02:34;;;;;;;26.67;13.65;;;;;;;;;;6285642;22;20065;-94
2023/02/09 14:05:07;;;;;;;23.25;13.23;;;;;;;;;;6293629;22;19999;-95
2023/02/09 14:07:37;;;;;;;24.13;13.60;;;;;;;;;;6309243;22;20022;-95
2023/02/09 14:10:18;;;;;;;25.65;13.55;;;;;;;;;;6319397;22;20007;-94
2023/02/09 14:12:58;;;;;;;26.60;14.52;;;;;;;;;;6317491;22;20019;-93
2023/02/09 14:18:27;;;;;;;23.80;13.40;;;;;;;;;;6354781;22;20012;-92
2023/02/09 14:21:13;;;;;;;22.98;13.52;;;;;;;;;;6326207;22;20003;-92
2023/02/09 14:23:41;;;;;;;21.13;11.80;;;;;;;;;;6324379;22;20006;-91
2023/02/09 14:26:13;;;;;;;23.77;12.75;;;;;;;;;;6325538;22;20021;-93
2023/02/09 14:28:40;;;;;;;21.90;12.27;;;;;;;;;;6320072;22;20006;-95
2023/02/09 14:31:16;;;;;;;21.67;13.32;;;;;;;;;;6323993;22;20006;-93
2023/02/09 14:33:51;;;;;;;23.33;12.02;;;;;;;;;;6363423;22;20045;-91
2023/02/09 14:36:23;;;;;;;23.55;12.98;;;;;;;;;;6339031;22;20423;-93
2023/02/09 14:38:50;;;;;;;22.15;12.23;;;;;;;;;;6330099;22;20007;-93
2023/02/09 14:44:43;;;;;;;22.33;11.73;;;;;;;;;;6361344;22;20062;-96
2023/02/09 14:50:53;;;;;;;22.42;12.57;;;;;;;;;;6208372;23;20020;-96
2023/02/09 14:59:00;;;;;;;24.73;13.02;;;;;;;;;;6324744;22;20037;-96
2023/02/09 15:01:38;;;;;;;26.02;13.25;;;;;;;;;;6333371;22;20018;-92
2023/02/09 15:07:19;;;;;;;21.70;12.52;;;;;;;;;;6295311;22;20008;-96
2023/02/09 15:13:44;;;;;;;25.63;13.95;;;;;;;;;;6235125;23;20008;-94
2023/02/09 15:16:34;;;;;;;27.02;14.38;;;;;;;;;;6211442;23;20019;-96
2023/02/09 15:19:18;;;;;;;29.05;14.57;;;;;;;;;;6229723;23;20489;-93
2023/02/09 15:21:51;;;;;;;26.55;14.45;;;;;;;;;;6209535;23;20016;-93
2023/02/09 15:24:23;;;;;;;27.60;14.23;;;;;;;;;;6210620;23;20009;-96
2023/02/09 15:27:33;;;;;;;;;;;;;;;;;;;;;
2023/02/09 15:30:41;;;;;;;29.48;15.13;;;;;;;;;;6315374;22;20409;-91
2023/02/09 15:34:02;;;;;;;26.13;14.23;;;;;;;;;;6190210;23;20005;-95
2023/02/09 15:36:47;;;;;;;38.95;24.05;;;;;;;;;;6166150;22;20011;-93
2023/02/09 15:39:36;;;;;;;31.23;17.15;;;;;;;;;;6329812;22;20014;-94
2023/02/09 15:48:20;;;;;;;36.53;19.25;;;;;;;;;;6235406;23;20054;-94
2023/02/09 15:50:49;;;;;;;34.08;18.20;;;;;;;;;;6208900;23;20070;-93
2023/02/09 15:53:56;;;;;;;33.22;17.40;;;;;;;;;;6204628;23;20004;-95
2023/02/09 15:56:23;;;;;;;36.20;18.05;;;;;;;;;;6213919;22;20074;-93
2023/02/09 15:59:07;;;;;;;37.90;18.15;;;;;;;;;;6330045;22;20007;-96
2023/02/09 16:01:42;;;;;;;38.20;18.27;;;;;;;;;;6343293;22;20015;-95
2023/02/09 16:04:25;;;;;;;42.15;20.88;;;;;;;;;;6361293;22;20007;-96
2023/02/09 16:07:12;;;;;;;46.22;22.98;;;;;;;;;;6332831;22;20046;-96
2023/02/09 16:10:01;;;;;;;42.22;21.58;;;;;;;;;;6279518;22;20026;-96
2023/02/09 16:13:16;;;;;;;44.47;21.75;;;;;;;;;;6320359;22;20014;-95
2023/02/09 16:16:30;;;;;;;;;;;;;;;;;;;;;
2023/02/09 16:19:32;;;;;;;59.88;22.95;;;;;;;;;;6366000;22;20052;-92
2023/02/09 16:22:44;;;;;;;;;;;;;;;;;;;;;
2023/02/09 16:25:27;;;;;;;64.38;26.50;;;;;;;;;;6354524;22;19983;-94
2023/02/09 16:28:19;;;;;;;46.65;23.48;;;;;;;;;;6329607;22;20006;-93
2023/02/09 16:31:29;;;;;;;51.83;20.30;;;;;;;;;;6354162;22;20003;-96
2023/02/09 16:34:01;;;;;;;43.40;19.23;;;;;;;;;;6352024;22;20007;-95
2023/02/09 16:37:02;;;;;;;43.10;19.90;;;;;;;;;;6304420;22;20018;-96
2023/02/09 16:40:20;;;;;;;58.20;26.17;;;;;;;;;;6356808;22;20003;-94
2023/02/09 16:42:56;;;;;;;76.57;33.20;;;;;;;;;;6342590;22;20015;-96
2023/02/09 16:45:25;;;;;;;78.53;34.85;;;;;;;;;;6325608;22;20443;-95
2023/02/09 16:48:14;;;;;;;73.53;35.15;;;;;;;;;;6331279;22;20091;-96
2023/02/09 16:50:51;;;;;;;93.93;40.58;;;;;;;;;;6351129;22;20040;-96
2023/02/09 16:53:36;;;;;;;84.25;37.92;;;;;;;;;;6316545;22;20015;-94
2023/02/09 16:56:11;;;;;;;93.65;41.28;;;;;;;;;;6322010;22;20006;-96
2023/02/09 16:58:39;;;;;;;85.93;39.95;;;;;;;;;;6350820;22;20430;-95
2023/02/09 17:01:29;;;;;;;96.13;43.30;;;;;;;;;;6349422;22;20022;-96
2023/02/09 17:03:56;;;;;;;90.78;39.58;;;;;;;;;;6322066;22;20013;-94
2023/02/09 17:06:28;;;;;;;92.18;39.20;;;;;;;;;;6316679;22;20235;-94
2023/02/09 17:08:55;;;;;;;88.80;38.17;;;;;;;;;;6294083;22;20051;-93
2023/02/09 17:11:37;;;;;;;92.07;39.97;;;;;;;;;;6315817;22;20007;-96
2023/02/09 17:14:08;;;;;;;98.20;38.40;;;;;;;;;;6350925;22;19991;-95
2023/02/09 17:16:48;;;;;;;116.40;50.03;;;;;;;;;;6365367;22;20010;-93
2023/02/09 17:19:19;;;;;;;133.38;57.40;;;;;;;;;;6307901;22;20002;-96
2023/02/09 17:21:48;;;;;;;;;;;;;;;;;;6356714;22;20324;-94
2023/02/09 17:24:17;;;;;;;126.63;51.95;;;;;;;;;;6352577;22;19898;-95
2023/02/09 17:26:44;;;;;;;119.10;49.58;;;;;;;;;;6323766;22;19999;-95
2023/02/09 17:29:16;;;;;;;108.45;49.55;;;;;;;;;;6346784;22;20016;-95
2023/02/09 17:31:43;;;;;;;105.85;46.22;;;;;;;;;;6324711;22;20014;-96
2023/02/09 17:34:11;;;;;;;110.88;49.10;;;;;;;;;;6293393;22;20056;-96
2023/02/09 17:36:37;;;;;;;148.25;61.15;;;;;;;;;;6318810;22;20089;-96
2023/02/09 17:39:04;;;;;;;160.13;72.78;;;;;;;;;;6344280;22;20447;-96
2023/02/09 17:41:37;;;;;;;143.25;60.17;;;;;;;;;;6341431;22;20021;-95
2023/02/09 17:44:19;;;;;;;127.85;52.80;;;;;;;;;;6314999;22;19999;-96
2023/02/09 17:46:46;;;;;;;116.65;49.33;;;;;;;;;;6314287;22;20047;-95
2023/02/09 17:49:12;;;;;;;99.30;40.33;;;;;;;;;;6311365;22;20420;-96
2023/02/09 17:51:43;;;;;;;97.85;38.70;;;;;;;;;;6313475;22;20011;-96
2023/02/09 17:54:16;;;;;;;90.07;37.72;;;;;;;;;;6314109;22;20010;-94
2023/02/09 17:56:43;;;;;;;82.40;33.05;;;;;;;;;;6325246;22;20070;-96
2023/02/09 17:59:10;;;;;;;97.38;40.65;;;;;;;;;;6334819;22;20007;-95
2023/02/09 18:01:41;;;;;;;96.30;42.03;;;;;;;;;;6319223;22;20007;-92
2023/02/09 18:04:15;;;;;;;124.30;53.28;;;;;;;;;;6343684;22;20443;-94
2023/02/09 18:06:41;;;;;;;;;;;;;;;;;;6293253;22;19991;-94
2023/02/09 18:09:09;;;;;;;117.90;51.35;;;;;;;;;;6341379;22;19907;-94
2023/02/09 18:11:42;;;;;;;107.55;48.90;;;;;;;;;;6343219;22;20523;-96
2023/02/09 18:14:14;;;;;;;115.97;52.00;;;;;;;;;;6293155;22;20045;-95
2023/02/09 18:16:43;;;;;;;121.05;53.95;;;;;;;;;;6315723;22;20081;-95
2023/02/09 18:19:10;;;;;;;118.45;53.60;;;;;;;;;;6317915;22;20011;-95
2023/02/09 18:21:39;;;;;;;100.00;47.85;;;;;;;;;;6291626;22;20023;-96
2023/02/09 18:24:05;;;;;;;110.65;50.63;;;;;;;;;;6316772;22;20002;-95
2023/02/09 18:26:35;;;;;;;138.57;58.08;;;;;;;;;;6317924;22;20428;-95
2023/02/09 18:29:25;;;;;;;110.43;51.42;;;;;;;;;;6314777;22;20013;-93
2023/02/09 18:31:51;;;;;;;96.95;44.50;;;;;;;;;;6319482;22;20003;-96
2023/02/09 18:34:17;;;;;;;98.75;46.45;;;;;;;;;;6320677;22;20003;-93
2023/02/09 18:36:53;;;;;;;101.00;48.22;;;;;;;;;;6320866;22;20031;-96
2023/02/09 18:39:34;;;;;;;104.07;49.92;;;;;;;;;;6294773;22;20007;-96
2023/02/09 18:42:20;;;;;;;105.35;51.65;;;;;;;;;;6320671;22;20022;-95
2023/02/09 18:44:52;;;;;;;111.75;52.95;;;;;;;;;;6347467;22;20041;-96
2023/02/09 18:47:21;;;;;;;129.88;64.38;;;;;;;;;;6319332;22;20011;-96
2023/02/09 18:50:11;;;;;;;137.85;69.38;;;;;;;;;;6346689;22;20023;-95
2023/02/09 18:52:51;;;;;;;137.48;70.32;;;;;;;;;;6345223;22;20007;-92
2023/02/09 18:55:23;;;;;;;136.02;69.70;;;;;;;;;;6346888;22;20415;-94
2023/02/09 18:57:51;;;;;;;128.85;65.32;;;;;;;;;;6289066;22;20472;-96
2023/02/09 19:00:20;;;;;;;130.55;65.72;;;;;;;;;;6290788;22;20035;-96